sensor_id;sensor_type;location;lat;lon;timestamp;pressure;altitude;pressure_sealevel;temperature;humidity
71361;BME280;59166;48.908;1.870;2023-02-12T00:04:34;102470.03;;;7.86;100.00
71361;BME280;59166;48.908;1.870;2023-02-12T00:09:36;102467.25;;;7.79;100.00
71361;BME280;59166;48.908;1.870;2023-02-12T00:14:37;102468.81;;;7.74;100.00
71361;BME280;59166;48.908;1.870;2023-02-12T00:19:38;102457.16;;;7.67;100.00
71361;BME280;59166;48.908;1.870;2023-02-12T00:24:40;102452.59;;;7.67;100.00
71361;BME280;59166;48.908;1.870;2023-02-12T00:29:40;102453.81;;;7.65;100.00
71361;BME280;59166;48.908;1.870;2023-02-12T00:34:41;102446.38;;;7.67;100.00
71361;BME280;59166;48.908;1.870;2023-02-12T00:39:43;102448.69;;;7.70;100.00
71361;BME280;59166;48.908;1.870;2023-02-12T00:44:44;102441.91;;;7.74;100.00
71361;BME280;59166;48.908;1.870;2023-02-12T00:49:44;102436.28;;;7.69;100.00
71361;BME280;59166;48.908;1.870;2023-02-12T00:54:46;102438.69;;;7.64;100.00
71361;BME280;59166;48.908;1.870;2023-02-12T00:59:47;102444.34;;;7.69;100.00
71361;BME280;59166;48.908;1.870;2023-02-12T01:04:48;102449.47;;;7.64;100.00
71361;BME280;59166;48.908;1.870;2023-02-12T01:09:50;102442.78;;;7.60;100.00
71361;BME280;59166;48.908;1.870;2023-02-12T01:14:50;102443.38;;;7.55;100.00
71361;BME280;59166;48.908;1.870;2023-02-12T01:19:55;102443.28;;;7.49;100.00
71361;BME280;59166;48.908;1.870;2023-02-12T01:24:58;102438.09;;;7.47;100.00
71361;BME280;59166;48.908;1.870;2023-02-12T01:29:58;102440.69;;;7.41;100.00
71361;BME280;59166;48.908;1.870;2023-02-12T01:34:59;102444.00;;;7.43;100.00
71361;BME280;59166;48.908;1.870;2023-02-12T01:40:02;102442.44;;;7.48;100.00
71361;BME280;59166;48.908;1.870;2023-02-12T01:45:44;102437.38;;;7.39;100.00
71361;BME280;59166;48.908;1.870;2023-02-12T01:50:46;102441.06;;;7.23;100.00
71361;BME280;59166;48.908;1.870;2023-02-12T01:55:52;102431.16;;;7.23;100.00
71361;BME280;59166;48.908;1.870;2023-02-12T02:00:54;102439.88;;;7.25;100.00
71361;BME280;59166;48.908;1.870;2023-02-12T02:05:58;102432.16;;;7.22;100.00
71361;BME280;59166;48.908;1.870;2023-02-12T02:11:02;102432.28;;;7.14;100.00
71361;BME280;59166;48.908;1.870;2023-02-12T02:16:09;102434.41;;;7.19;100.00
71361;BME280;59166;48.908;1.870;2023-02-12T02:21:39;102435.69;;;7.23;100.00
71361;BME280;59166;48.908;1.870;2023-02-12T02:27:13;102441.91;;;7.23;100.00
71361;BME280;59166;48.908;1.870;2023-02-12T02:32:18;102438.00;;;7.26;100.00
71361;BME280;59166;48.908;1.870;2023-02-12T02:37:26;102435.97;;;7.28;100.00
71361;BME280;59166;48.908;1.870;2023-02-12T02:42:32;102435.06;;;7.21;100.00
71361;BME280;59166;48.908;1.870;2023-02-12T02:47:38;102432.53;;;7.19;100.00
71361;BME280;59166;48.908;1.870;2023-02-12T02:52:45;102429.03;;;7.19;100.00
71361;BME280;59166;48.908;1.870;2023-02-12T02:57:50;102420.84;;;7.12;100.00
71361;BME280;59166;48.908;1.870;2023-02-12T03:02:56;102414.84;;;7.10;100.00
71361;BME280;59166;48.908;1.870;2023-02-12T03:08:03;102411.06;;;7.05;100.00
71361;BME280;59166;48.908;1.870;2023-02-12T03:13:08;102407.53;;;7.04;100.00
71361;BME280;59166;48.908;1.870;2023-02-12T03:18:17;102414.75;;;7.04;100.00
71361;BME280;59166;48.908;1.870;2023-02-12T03:23:23;102414.84;;;7.10;100.00
71361;BME280;59166;48.908;1.870;2023-02-12T03:28:27;102414.22;;;7.08;100.00
71361;BME280;59166;48.908;1.870;2023-02-12T03:33:34;102401.03;;;7.13;100.00
71361;BME280;59166;48.908;1.870;2023-02-12T03:38:44;102407.00;;;7.09;100.00
71361;BME280;59166;48.908;1.870;2023-02-12T03:43:51;102408.16;;;7.06;100.00
71361;BME280;59166;48.908;1.870;2023-02-12T03:48:59;102393.56;;;7.09;100.00
71361;BME280;59166;48.908;1.870;2023-02-12T03:54:01;102389.00;;;7.09;100.00
71361;BME280;59166;48.908;1.870;2023-02-12T03:59:03;102380.28;;;7.07;100.00
71361;BME280;59166;48.908;1.870;2023-02-12T04:04:07;102374.06;;;7.07;100.00
71361;BME280;59166;48.908;1.870;2023-02-12T04:09:09;102377.84;;;7.12;100.00
71361;BME280;59166;48.908;1.870;2023-02-12T04:14:19;102382.06;;;7.15;100.00
71361;BME280;59166;48.908;1.870;2023-02-12T04:19:30;102385.19;;;7.18;100.00
71361;BME280;59166;48.908;1.870;2023-02-12T04:24:39;102391.97;;;7.14;100.00
71361;BME280;59166;48.908;1.870;2023-02-12T04:29:55;102385.19;;;7.18;100.00
71361;BME280;59166;48.908;1.870;2023-02-12T04:35:03;102400.94;;;7.21;100.00
71361;BME280;59166;48.908;1.870;2023-02-12T04:40:08;102395.38;;;7.23;100.00
71361;BME280;59166;48.908;1.870;2023-02-12T04:45:12;102391.22;;;7.20;100.00
71361;BME280;59166;48.908;1.870;2023-02-12T04:50:15;102398.25;;;7.21;100.00
71361;BME280;59166;48.908;1.870;2023-02-12T04:55:16;102400.28;;;7.19;100.00
71361;BME280;59166;48.908;1.870;2023-02-12T05:00:17;102398.91;;;7.23;100.00
71361;BME280;59166;48.908;1.870;2023-02-12T05:05:20;102387.13;;;7.24;100.00
71361;BME280;59166;48.908;1.870;2023-02-12T05:10:21;102395.75;;;7.20;100.00
71361;BME280;59166;48.908;1.870;2023-02-12T05:15:21;102383.97;;;7.21;99.99
71361;BME280;59166;48.908;1.870;2023-02-12T05:20:24;102388.53;;;7.20;99.48
71361;BME280;59166;48.908;1.870;2023-02-12T05:25:28;102393.72;;;7.22;99.46
71361;BME280;59166;48.908;1.870;2023-02-12T05:30:29;102372.84;;;7.24;99.01
71361;BME280;59166;48.908;1.870;2023-02-12T05:35:33;102379.63;;;7.20;99.17
71361;BME280;59166;48.908;1.870;2023-02-12T05:40:34;102375.91;;;7.21;99.59
71361;BME280;59166;48.908;1.870;2023-02-12T05:45:35;102378.78;;;7.19;99.27
71361;BME280;59166;48.908;1.870;2023-02-12T05:50:38;102376.75;;;7.21;98.50
71361;BME280;59166;48.908;1.870;2023-02-12T05:55:39;102377.13;;;7.18;98.43
71361;BME280;59166;48.908;1.870;2023-02-12T06:00:39;102372.13;;;7.15;98.67
71361;BME280;59166;48.908;1.870;2023-02-12T06:05:42;102385.28;;;7.25;98.44
71361;BME280;59166;48.908;1.870;2023-02-12T06:10:43;102371.09;;;7.16;98.85
71361;BME280;59166;48.908;1.870;2023-02-12T06:15:44;102367.09;;;7.12;98.85
71361;BME280;59166;48.908;1.870;2023-02-12T06:20:46;102364.63;;;7.11;99.02
71361;BME280;59166;48.908;1.870;2023-02-12T06:25:48;102358.03;;;7.13;99.00
71361;BME280;59166;48.908;1.870;2023-02-12T06:30:49;102358.03;;;7.13;98.91
71361;BME280;59166;48.908;1.870;2023-02-12T06:35:52;102370.47;;;7.14;99.06
71361;BME280;59166;48.908;1.870;2023-02-12T06:40:52;102371.38;;;7.21;98.73
71361;BME280;59166;48.908;1.870;2023-02-12T06:45:53;102370.72;;;7.19;98.82
71361;BME280;59166;48.908;1.870;2023-02-12T06:50:56;102365.25;;;7.13;99.09
71361;BME280;59166;48.908;1.870;2023-02-12T06:56:05;102370.47;;;7.14;98.94
71361;BME280;59166;48.908;1.870;2023-02-12T07:01:11;102369.16;;;7.10;99.15
71361;BME280;59166;48.908;1.870;2023-02-12T07:06:14;102380.75;;;7.11;99.19
71361;BME280;59166;48.908;1.870;2023-02-12T07:11:19;102388.19;;;7.09;99.63
71361;BME280;59166;48.908;1.870;2023-02-12T07:16:22;102387.97;;;7.10;99.15
71361;BME280;59166;48.908;1.870;2023-02-12T07:21:25;102397.72;;;7.11;99.54
71361;BME280;59166;48.908;1.870;2023-02-12T07:26:30;102404.00;;;7.18;98.12
71361;BME280;59166;48.908;1.870;2023-02-12T07:31:31;102406.78;;;7.10;98.49
71361;BME280;59166;48.908;1.870;2023-02-12T07:36:34;102401.16;;;7.05;99.01
71361;BME280;59166;48.908;1.870;2023-02-12T07:41:35;102408.53;;;7.03;99.23
71361;BME280;59166;48.908;1.870;2023-02-12T07:46:38;102404.19;;;7.02;99.21
71361;BME280;59166;48.908;1.870;2023-02-12T07:51:40;102399.38;;;6.98;99.22
71361;BME280;59166;48.908;1.870;2023-02-12T07:56:42;102403.84;;;7.05;99.05
71361;BME280;59166;48.908;1.870;2023-02-12T08:01:46;102409.84;;;7.07;98.67
71361;BME280;59166;48.908;1.870;2023-02-12T08:06:50;102421.31;;;7.16;98.51
71361;BME280;59166;48.908;1.870;2023-02-12T08:11:52;102423.28;;;7.22;98.12
71361;BME280;59166;48.908;1.870;2023-02-12T08:16:53;102420.03;;;7.26;97.84
71361;BME280;59166;48.908;1.870;2023-02-12T08:21:55;102415.94;;;7.31;97.38
71361;BME280;59166;48.908;1.870;2023-02-12T08:26:57;102419.38;;;7.24;98.00
71361;BME280;59166;48.908;1.870;2023-02-12T08:31:59;102417.53;;;7.25;97.73
71361;BME280;59166;48.908;1.870;2023-02-12T08:37:04;102427.63;;;7.23;97.99
71361;BME280;59166;48.908;1.870;2023-02-12T08:42:05;102434.22;;;7.20;98.26
71361;BME280;59166;48.908;1.870;2023-02-12T08:47:06;102430.59;;;7.28;97.76
71361;BME280;59166;48.908;1.870;2023-02-12T08:52:08;102425.47;;;7.33;97.74
71361;BME280;59166;48.908;1.870;2023-02-12T08:57:09;102437.06;;;7.34;97.90
71361;BME280;59166;48.908;1.870;2023-02-12T09:02:10;102434.22;;;7.35;97.45
71361;BME280;59166;48.908;1.870;2023-02-12T09:07:12;102431.31;;;7.37;97.36
71361;BME280;59166;48.908;1.870;2023-02-12T09:12:13;102427.53;;;7.46;97.57
71361;BME280;59166;48.908;1.870;2023-02-12T09:17:14;102422.78;;;7.48;97.55
71361;BME280;59166;48.908;1.870;2023-02-12T09:22:16;102420.00;;;7.56;96.87
71361;BME280;59166;48.908;1.870;2023-02-12T09:27:17;102415.88;;;7.60;95.58
71361;BME280;59166;48.908;1.870;2023-02-12T09:32:18;102417.47;;;7.69;95.78
71361;BME280;59166;48.908;1.870;2023-02-12T09:37:20;102418.53;;;7.74;95.63
71361;BME280;59166;48.908;1.870;2023-02-12T09:42:31;102427.91;;;7.78;95.10
71361;BME280;59166;48.908;1.870;2023-02-12T09:47:43;102428.38;;;7.82;94.66
71361;BME280;59166;48.908;1.870;2023-02-12T09:52:47;102419.03;;;7.99;93.41
71361;BME280;59166;48.908;1.870;2023-02-12T09:57:49;102416.84;;;7.88;93.86
71361;BME280;59166;48.908;1.870;2023-02-12T10:02:52;102413.59;;;7.93;92.08
71361;BME280;59166;48.908;1.870;2023-02-12T10:08:18;102421.97;;;8.04;92.24
71361;BME280;59166;48.908;1.870;2023-02-12T10:13:51;102417.75;;;7.95;93.01
71361;BME280;59166;48.908;1.870;2023-02-12T10:19:04;102419.03;;;7.99;92.16
71361;BME280;59166;48.908;1.870;2023-02-12T10:24:44;102426.91;;;8.01;92.36
71361;BME280;59166;48.908;1.870;2023-02-12T10:29:48;102428.63;;;8.08;91.64
71361;BME280;59166;48.908;1.870;2023-02-12T10:34:50;102432.16;;;8.09;90.75
71361;BME280;59166;48.908;1.870;2023-02-12T10:39:57;102425.38;;;8.13;91.27
71361;BME280;59166;48.908;1.870;2023-02-12T10:44:59;102427.75;;;8.22;90.13
71361;BME280;59166;48.908;1.870;2023-02-12T10:50:01;102416.59;;;8.25;89.99
71361;BME280;59166;48.908;1.870;2023-02-12T10:55:23;102426.13;;;8.28;90.42
71361;BME280;59166;48.908;1.870;2023-02-12T11:00:28;102415.63;;;8.33;90.81
71361;BME280;59166;48.908;1.870;2023-02-12T11:05:30;102412.78;;;8.41;89.51
71361;BME280;59166;48.908;1.870;2023-02-12T11:10:37;102403.44;;;8.37;90.64
71361;BME280;59166;48.908;1.870;2023-02-12T11:15:47;102400.53;;;8.39;90.45
71361;BME280;59166;48.908;1.870;2023-02-12T11:20:50;102400.59;;;8.45;90.37
71361;BME280;59166;48.908;1.870;2023-02-12T11:25:59;102391.97;;;8.56;89.84
71361;BME280;59166;48.908;1.870;2023-02-12T11:31:02;102381.13;;;8.71;87.41
71361;BME280;59166;48.908;1.870;2023-02-12T11:36:10;102371.50;;;8.62;88.17
71361;BME280;59166;48.908;1.870;2023-02-12T11:41:23;102373.66;;;8.73;87.77
71361;BME280;59166;48.908;1.870;2023-02-12T11:46:26;102360.56;;;8.70;87.08
71361;BME280;59166;48.908;1.870;2023-02-12T11:51:30;102363.28;;;8.70;88.61
71361;BME280;59166;48.908;1.870;2023-02-12T11:56:43;102354.38;;;8.76;88.42
71361;BME280;59166;48.908;1.870;2023-02-12T12:01:45;102344.66;;;8.81;87.06
71361;BME280;59166;48.908;1.870;2023-02-12T12:06:49;102343.25;;;8.86;87.30
71361;BME280;59166;48.908;1.870;2023-02-12T12:11:57;102339.34;;;8.88;86.74
71361;BME280;59166;48.908;1.870;2023-02-12T12:17:03;102329.22;;;8.90;85.49
71361;BME280;59166;48.908;1.870;2023-02-12T12:22:13;102321.56;;;8.94;86.48
71361;BME280;59166;48.908;1.870;2023-02-12T12:27:20;102324.88;;;8.96;86.59
71361;BME280;59166;48.908;1.870;2023-02-12T12:32:25;102312.28;;;9.09;85.62
71361;BME280;59166;48.908;1.870;2023-02-12T12:37:34;102312.47;;;9.01;84.78
71361;BME280;59166;48.908;1.870;2023-02-12T12:42:58;102310.56;;;8.95;84.45
71361;BME280;59166;48.908;1.870;2023-02-12T12:48:10;102305.22;;;9.08;84.90
71361;BME280;59166;48.908;1.870;2023-02-12T12:53:29;102297.81;;;9.17;85.12
71361;BME280;59166;48.908;1.870;2023-02-12T12:58:46;102289.75;;;9.23;83.70
71361;BME280;59166;48.908;1.870;2023-02-12T13:04:29;102295.75;;;9.25;84.63
71361;BME280;59166;48.908;1.870;2023-02-12T13:09:44;102296.16;;;9.22;83.65
71361;BME280;59166;48.908;1.870;2023-02-12T13:14:53;102295.97;;;9.30;83.42
71361;BME280;59166;48.908;1.870;2023-02-12T13:20:35;102289.16;;;9.35;83.10
71361;BME280;59166;48.908;1.870;2023-02-12T13:26:01;102283.56;;;9.43;82.55
71361;BME280;59166;48.908;1.870;2023-02-12T13:31:13;102274.84;;;9.47;82.65
71361;BME280;59166;48.908;1.870;2023-02-12T13:36:35;102276.53;;;9.48;82.12
71361;BME280;59166;48.908;1.870;2023-02-12T13:41:37;102274.44;;;9.44;82.99
71361;BME280;59166;48.908;1.870;2023-02-12T13:47:03;102267.59;;;9.54;81.32
71361;BME280;59166;48.908;1.870;2023-02-12T13:52:12;102269.22;;;9.42;81.51
71361;BME280;59166;48.908;1.870;2023-02-12T13:57:18;102260.94;;;9.44;83.22
71361;BME280;59166;48.908;1.870;2023-02-12T14:07:49;102251.19;;;9.49;83.68
71361;BME280;59166;48.908;1.870;2023-02-12T14:12:53;102252.69;;;9.58;81.67
71361;BME280;59166;48.908;1.870;2023-02-12T14:18:02;102250.19;;;9.63;81.70
71361;BME280;59166;48.908;1.870;2023-02-12T14:23:26;102244.16;;;9.68;79.45
71361;BME280;59166;48.908;1.870;2023-02-12T14:28:40;102234.41;;;9.60;80.98
71361;BME280;59166;48.908;1.870;2023-02-12T14:33:43;102234.19;;;9.49;80.75
71361;BME280;59166;48.908;1.870;2023-02-12T14:39:01;102226.31;;;9.54;81.46
71361;BME280;59166;48.908;1.870;2023-02-12T14:44:42;102219.88;;;9.61;81.04
71361;BME280;59166;48.908;1.870;2023-02-12T14:49:45;102220.06;;;9.60;79.47
71361;BME280;59166;48.908;1.870;2023-02-12T14:54:49;102218.81;;;9.56;79.62
71361;BME280;59166;48.908;1.870;2023-02-12T14:59:52;102222.16;;;9.58;80.34
71361;BME280;59166;48.908;1.870;2023-02-12T15:04:58;102209.69;;;9.70;80.63
71361;BME280;59166;48.908;1.870;2023-02-12T15:10:06;102205.56;;;9.67;80.46
71361;BME280;59166;48.908;1.870;2023-02-12T15:15:12;102211.38;;;9.64;79.52
71361;BME280;59166;48.908;1.870;2023-02-12T15:20:19;102201.41;;;9.58;81.13
71361;BME280;59166;48.908;1.870;2023-02-12T15:25:24;102198.06;;;9.63;79.00
71361;BME280;59166;48.908;1.870;2023-02-12T15:30:27;102200.16;;;9.61;80.29
71361;BME280;59166;48.908;1.870;2023-02-12T15:35:30;102197.47;;;9.61;79.13
71361;BME280;59166;48.908;1.870;2023-02-12T15:40:33;102198.06;;;9.50;78.74
71361;BME280;59166;48.908;1.870;2023-02-12T15:45:34;102196.41;;;9.36;79.27
71361;BME280;59166;48.908;1.870;2023-02-12T15:50:45;102198.47;;;9.33;80.23
71361;BME280;59166;48.908;1.870;2023-02-12T15:55:48;102197.66;;;9.46;79.26
71361;BME280;59166;48.908;1.870;2023-02-12T16:00:50;102195.38;;;9.37;79.71
71361;BME280;59166;48.908;1.870;2023-02-12T16:05:55;102189.13;;;9.43;81.25
71361;BME280;59166;48.908;1.870;2023-02-12T16:10:59;102187.28;;;9.37;80.62
71361;BME280;59166;48.908;1.870;2023-02-12T16:16:07;102186.25;;;9.31;81.97
71361;BME280;59166;48.908;1.870;2023-02-12T16:21:15;102188.31;;;9.29;81.52
71361;BME280;59166;48.908;1.870;2023-02-12T16:26:19;102191.22;;;9.27;81.11
71361;BME280;59166;48.908;1.870;2023-02-12T16:31:20;102193.66;;;9.09;81.99
71361;BME280;59166;48.908;1.870;2023-02-12T16:36:30;102199.25;;;8.95;82.78
71361;BME280;59166;48.908;1.870;2023-02-12T16:41:33;102206.03;;;8.84;82.37
71361;BME280;59166;48.908;1.870;2023-02-12T16:46:44;102200.13;;;8.61;83.25
71361;BME280;59166;48.908;1.870;2023-02-12T16:51:46;102202.25;;;8.31;83.68
71361;BME280;59166;48.908;1.870;2023-02-12T16:56:48;102207.03;;;8.01;85.27
71361;BME280;59166;48.908;1.870;2023-02-12T17:01:57;102208.13;;;7.79;85.68
71361;BME280;59166;48.908;1.870;2023-02-12T17:06:58;102204.84;;;7.56;86.49
71361;BME280;59166;48.908;1.870;2023-02-12T17:12:09;102218.59;;;7.46;87.17
71361;BME280;59166;48.908;1.870;2023-02-12T17:17:10;102216.38;;;7.28;87.67
71361;BME280;59166;48.908;1.870;2023-02-12T17:22:21;102213.50;;;7.09;88.43
71361;BME280;59166;48.908;1.870;2023-02-12T17:27:24;102219.28;;;6.91;89.91
71361;BME280;59166;48.908;1.870;2023-02-12T17:32:25;102220.41;;;6.82;89.95
71361;BME280;59166;48.908;1.870;2023-02-12T17:37:29;102213.63;;;6.65;90.28
71361;BME280;59166;48.908;1.870;2023-02-12T17:42:31;102219.34;;;6.62;91.04
71361;BME280;59166;48.908;1.870;2023-02-12T17:47:32;102229.91;;;6.49;91.11
71361;BME280;59166;48.908;1.870;2023-02-12T17:52:33;102221.22;;;6.47;91.50
71361;BME280;59166;48.908;1.870;2023-02-12T17:57:36;102232.47;;;6.42;91.17
71361;BME280;59166;48.908;1.870;2023-02-12T18:02:37;102231.38;;;6.37;92.27
71361;BME280;59166;48.908;1.870;2023-02-12T18:07:38;102243.31;;;6.34;92.33
71361;BME280;59166;48.908;1.870;2023-02-12T18:12:40;102241.28;;;6.36;92.46
71361;BME280;59166;48.908;1.870;2023-02-12T18:17:41;102238.66;;;6.28;92.29
71361;BME280;59166;48.908;1.870;2023-02-12T18:22:41;102230.44;;;6.15;93.03
71361;BME280;59166;48.908;1.870;2023-02-12T18:27:44;102233.94;;;6.15;93.81
71361;BME280;59166;48.908;1.870;2023-02-12T18:32:44;102219.06;;;6.13;92.86
71361;BME280;59166;48.908;1.870;2023-02-12T18:37:45;102220.34;;;6.02;93.77
71361;BME280;59166;48.908;1.870;2023-02-12T18:42:47;102217.41;;;5.97;94.90
71361;BME280;59166;48.908;1.870;2023-02-12T18:47:48;102212.56;;;5.93;94.45
71361;BME280;59166;48.908;1.870;2023-02-12T18:52:48;102210.06;;;5.91;95.19
71361;BME280;59166;48.908;1.870;2023-02-12T18:57:50;102209.13;;;5.84;95.42
71361;BME280;59166;48.908;1.870;2023-02-12T19:02:51;102207.28;;;5.85;95.40
71361;BME280;59166;48.908;1.870;2023-02-12T19:07:52;102212.47;;;5.86;96.30
71361;BME280;59166;48.908;1.870;2023-02-12T19:12:54;102198.41;;;5.84;96.20
71361;BME280;59166;48.908;1.870;2023-02-12T19:17:55;102203.84;;;5.76;96.03
71361;BME280;59166;48.908;1.870;2023-02-12T19:22:55;102198.38;;;5.69;96.38
71361;BME280;59166;48.908;1.870;2023-02-12T19:27:57;102193.88;;;5.70;97.53
71361;BME280;59166;48.908;1.870;2023-02-12T19:32:58;102192.25;;;5.61;97.51
71361;BME280;59166;48.908;1.870;2023-02-12T19:37:59;102191.41;;;5.60;97.81
71361;BME280;59166;48.908;1.870;2023-02-12T19:43:01;102183.47;;;5.52;97.16
71361;BME280;59166;48.908;1.870;2023-02-12T19:48:01;102193.03;;;5.47;97.90
71361;BME280;59166;48.908;1.870;2023-02-12T19:53:02;102191.78;;;5.57;98.49
71361;BME280;59166;48.908;1.870;2023-02-12T19:58:04;102175.44;;;5.67;96.78
71361;BME280;59166;48.908;1.870;2023-02-12T20:03:05;102167.22;;;5.68;96.77
71361;BME280;59166;48.908;1.870;2023-02-12T20:08:05;102165.94;;;5.79;96.09
71361;BME280;59166;48.908;1.870;2023-02-12T20:13:08;102174.66;;;5.96;94.77
71361;BME280;59166;48.908;1.870;2023-02-12T20:18:09;102175.13;;;5.99;94.18
71361;BME280;59166;48.908;1.870;2023-02-12T20:23:10;102175.84;;;5.93;94.01
71361;BME280;59166;48.908;1.870;2023-02-12T20:28:12;102177.16;;;5.97;93.69
71361;BME280;59166;48.908;1.870;2023-02-12T20:33:13;102167.97;;;5.92;93.44
71361;BME280;59166;48.908;1.870;2023-02-12T20:38:14;102161.78;;;5.91;93.88
71361;BME280;59166;48.908;1.870;2023-02-12T20:43:16;102151.78;;;5.85;93.78
71361;BME280;59166;48.908;1.870;2023-02-12T20:48:16;102152.53;;;5.79;93.97
71361;BME280;59166;48.908;1.870;2023-02-12T20:53:17;102157.69;;;5.66;94.88
71361;BME280;59166;48.908;1.870;2023-02-12T20:58:19;102169.88;;;5.54;94.50
71361;BME280;59166;48.908;1.870;2023-02-12T21:03:20;102158.28;;;5.39;93.14
71361;BME280;59166;48.908;1.870;2023-02-12T21:08:20;102167.75;;;5.27;93.90
71361;BME280;59166;48.908;1.870;2023-02-12T21:13:23;102170.81;;;5.01;94.71
71361;BME280;59166;48.908;1.870;2023-02-12T21:18:24;102167.69;;;4.89;98.20
71361;BME280;59166;48.908;1.870;2023-02-12T21:23:25;102164.34;;;4.95;98.72
71361;BME280;59166;48.908;1.870;2023-02-12T21:28:28;102171.13;;;5.06;97.56
71361;BME280;59166;48.908;1.870;2023-02-12T21:33:28;102176.13;;;5.09;97.03
71361;BME280;59166;48.908;1.870;2023-02-12T21:38:31;102168.63;;;5.04;96.67
71361;BME280;59166;48.908;1.870;2023-02-12T21:43:34;102167.69;;;4.89;96.20
71361;BME280;59166;48.908;1.870;2023-02-12T21:48:35;102181.91;;;4.67;95.84
71361;BME280;59166;48.908;1.870;2023-02-12T21:53:36;102179.00;;;4.46;97.51
71361;BME280;59166;48.908;1.870;2023-02-12T21:58:38;102188.09;;;4.29;97.65
71361;BME280;59166;48.908;1.870;2023-02-12T22:03:38;102180.47;;;4.09;99.46
71361;BME280;59166;48.908;1.870;2023-02-12T22:08:39;102175.63;;;4.13;99.94
71361;BME280;59166;48.908;1.870;2023-02-12T22:13:41;102178.50;;;4.03;100.00
71361;BME280;59166;48.908;1.870;2023-02-12T22:18:43;102188.56;;;3.93;99.98
71361;BME280;59166;48.908;1.870;2023-02-12T22:23:44;102188.41;;;3.87;100.00
71361;BME280;59166;48.908;1.870;2023-02-12T22:28:47;102191.06;;;3.87;100.00
71361;BME280;59166;48.908;1.870;2023-02-12T22:33:49;102187.56;;;3.94;100.00
71361;BME280;59166;48.908;1.870;2023-02-12T22:38:51;102179.69;;;4.01;100.00
71361;BME280;59166;48.908;1.870;2023-02-12T22:43:53;102184.06;;;4.33;100.00
71361;BME280;59166;48.908;1.870;2023-02-12T22:48:54;102190.53;;;3.99;99.72
71361;BME280;59166;48.908;1.870;2023-02-12T22:53:55;102186.59;;;3.63;100.00
71361;BME280;59166;48.908;1.870;2023-02-12T22:58:59;102192.31;;;3.44;100.00
71361;BME280;59166;48.908;1.870;2023-02-12T23:04:00;102187.59;;;3.38;100.00
71361;BME280;59166;48.908;1.870;2023-02-12T23:09:03;102190.78;;;3.25;100.00
71361;BME280;59166;48.908;1.870;2023-02-12T23:14:05;102189.28;;;3.23;100.00
71361;BME280;59166;48.908;1.870;2023-02-12T23:19:05;102188.44;;;3.22;100.00
71361;BME280;59166;48.908;1.870;2023-02-12T23:24:08;102186.63;;;3.23;100.00
71361;BME280;59166;48.908;1.870;2023-02-12T23:29:11;102182.59;;;3.18;100.00
71361;BME280;59166;48.908;1.870;2023-02-12T23:34:12;102169.91;;;3.21;100.00
71361;BME280;59166;48.908;1.870;2023-02-12T23:39:12;102171.59;;;3.22;100.00
71361;BME280;59166;48.908;1.870;2023-02-12T23:44:14;102174.44;;;3.20;100.00
71361;BME280;59166;48.908;1.870;2023-02-12T23:49:15;102170.25;;;3.17;100.00
71361;BME280;59166;48.908;1.870;2023-02-12T23:54:16;102159.25;;;3.12;100.00
71361;BME280;59166;48.908;1.870;2023-02-12T23:59:18;102163.56;;;3.05;100.00
